Time;durP1;ratioP1;P1;durP2;ratioP2;P2;SDS_P1;SDS_P2;PMS_P1;PMS_P2;Temp;Humidity;BMP_temperature;BMP_pressure;BME280_temperature;BME280_humidity;BME280_pressure;Samples;Min_cycle;Max_cycle;Signal;HPM_P1;HPM_P2
2021/05/18 00:00:11;;;;;;;11.70;2.03;;;18.20;98.40;;;;;;4995098;28;20069;-76
2021/05/18 00:02:37;;;;;;;5.95;1.50;;;18.20;98.40;;;;;;5012692;28;20028;-79
2021/05/18 00:05:05;;;;;;;7.45;1.73;;;18.10;98.50;;;;;;5012508;28;20101;-77
2021/05/18 00:07:32;;;;;;;6.15;1.83;;;18.10;98.40;;;;;;5012252;28;20065;-77
2021/05/18 00:12:42;;;;;;;4.15;1.10;;;18.10;98.10;;;;;;5012643;28;20034;-80
2021/05/18 00:15:14;;;;;;;3.90;1.63;;;18.10;98.00;;;;;;5012372;28;20068;-80
2021/05/18 00:17:40;;;;;;;4.22;1.30;;;18.10;97.90;;;;;;5012435;28;20312;-76
2021/05/18 00:20:10;;;;;;;2.28;1.23;;;18.00;97.90;;;;;;5012315;28;20105;-81
2021/05/18 00:22:37;;;;;;;6.88;1.88;;;18.00;97.70;;;;;;5012551;28;20026;-81
2021/05/18 00:25:05;;;;;;;5.45;1.63;;;18.00;97.50;;;;;;5012351;28;20037;-81
2021/05/18 00:27:31;;;;;;;9.20;1.90;;;18.00;97.20;;;;;;5012302;28;20030;-81
2021/05/18 00:29:58;;;;;;;9.18;2.05;;;17.90;97.00;;;;;;5012389;28;20034;-81
2021/05/18 00:32:24;;;;;;;6.18;1.40;;;18.00;96.40;;;;;;5012363;28;20028;-78
2021/05/18 00:34:55;;;;;;;6.40;1.20;;;18.00;96.20;;;;;;5012280;28;20026;-81
2021/05/18 00:37:23;;;;;;;4.60;1.08;;;18.00;96.20;;;;;;5012269;28;20145;-77
2021/05/18 00:39:50;;;;;;;5.00;1.20;;;18.10;96.50;;;;;;4994496;28;20046;-81
2021/05/18 00:42:17;;;;;;;4.57;1.48;;;18.00;96.40;;;;;;5012213;28;20126;-81
2021/05/18 00:44:44;;;;;;;3.03;0.90;;;18.00;96.10;;;;;;5012491;28;20037;-77
2021/05/18 00:47:11;;;;;;;7.85;1.83;;;18.00;95.90;;;;;;5012022;28;20486;-77
2021/05/18 00:49:38;;;;;;;6.85;1.23;;;17.90;95.60;;;;;;5012105;28;20088;-81
2021/05/18 00:52:06;;;;;;;3.15;1.40;;;17.90;95.50;;;;;;4994482;28;20129;-77
2021/05/18 00:54:52;;;;;;;3.10;1.30;;;18.00;95.30;;;;;;4994708;28;20041;-81
2021/05/18 01:00:04;;;;;;;2.05;0.90;;;17.90;95.00;;;;;;5015566;28;20486;-77
2021/05/18 01:02:30;;;;;;;5.03;1.10;;;17.90;94.50;;;;;;5016593;28;20068;-79
2021/05/18 01:05:07;;;;;;;3.30;1.50;;;17.90;94.20;;;;;;5032246;28;20448;-81
2021/05/18 01:07:35;;;;;;;6.20;1.30;;;17.90;93.90;;;;;;5015282;28;20367;-77
2021/05/18 01:10:02;;;;;;;4.90;0.90;;;17.90;93.70;;;;;;4997706;28;20121;-81
2021/05/18 01:12:30;;;;;;;5.35;1.88;;;17.90;93.60;;;;;;5015388;28;20111;-81
2021/05/18 01:14:56;;;;;;;4.32;1.25;;;17.90;93.70;;;;;;5015287;28;20160;-81
2021/05/18 01:17:22;;;;;;;2.10;0.80;;;17.80;93.70;;;;;;5015289;28;20026;-81
2021/05/18 01:19:48;;;;;;;6.22;1.73;;;17.80;93.60;;;;;;5015339;28;20034;-78
2021/05/18 01:22:14;;;;;;;5.18;1.58;;;17.70;93.60;;;;;;5015195;28;20422;-81
2021/05/18 01:24:43;;;;;;;4.20;1.65;;;17.70;93.70;;;;;;4997678;28;20038;-81
2021/05/18 01:27:09;;;;;;;4.28;1.83;;;17.70;94.00;;;;;;4997592;28;20032;-81
2021/05/18 01:29:35;;;;;;;5.20;1.35;;;17.60;93.70;;;;;;5015006;28;20029;-81
2021/05/18 01:32:06;;;;;;;3.95;1.55;;;17.60;93.60;;;;;;4997348;28;20042;-81
2021/05/18 01:34:32;;;;;;;7.03;1.40;;;17.60;93.40;;;;;;4997672;28;20041;-78
2021/05/18 01:36:58;;;;;;;5.00;1.25;;;17.50;93.30;;;;;;5015028;28;20029;-78
2021/05/18 01:44:39;;;;;;;2.25;1.38;;;17.50;92.50;;;;;;4997225;28;20026;-82
2021/05/18 01:47:08;;;;;;;5.20;1.08;;;17.40;92.40;;;;;;4997121;28;20034;-78
2021/05/18 01:49:39;;;;;;;6.97;1.40;;;17.40;92.30;;;;;;4997090;28;20030;-81
2021/05/18 01:52:08;;;;;;;3.78;1.00;;;17.40;92.20;;;;;;4997197;28;20398;-80
2021/05/18 01:54:35;;;;;;;4.07;1.15;;;17.30;92.10;;;;;;5014724;28;20026;-77
2021/05/18 01:57:24;;;;;;;3.22;1.13;;;17.30;92.10;;;;;;4996815;28;20394;-76
2021/05/18 02:00:09;;;;;;;1.90;0.77;;;17.30;92.20;;;;;;4996958;28;20046;-80
2021/05/18 02:02:40;;;;;;;1.58;1.10;;;17.20;92.30;;;;;;5014565;28;20054;-81
2021/05/18 02:05:11;;;;;;;4.22;1.77;;;17.10;92.30;;;;;;4996744;28;20068;-78
2021/05/18 02:07:48;;;;;;;15.15;1.55;;;17.10;92.50;;;;;;4995866;28;20095;-78
2021/05/18 02:10:17;;;;;;;3.67;1.05;;;17.00;92.50;;;;;;4996795;28;20467;-81
2021/05/18 02:12:57;;;;;;;2.70;0.88;;;17.00;92.60;;;;;;4997542;28;20018;-81
2021/05/18 02:21:51;;;;;;;6.72;1.15;;;16.90;92.60;;;;;;4996463;28;20042;-77
2021/05/18 02:26:26;;;;;;;4.25;0.90;;;16.90;92.60;;;;;;5013889;28;20038;-81
2021/05/18 02:28:57;;;;;;;4.88;1.27;;;16.90;92.60;;;;;;5013976;28;20066;-81
2021/05/18 02:31:25;;;;;;;2.80;0.85;;;16.80;92.70;;;;;;4996327;28;20445;-81
2021/05/18 02:33:56;;;;;;;4.68;1.23;;;16.80;92.60;;;;;;4996270;28;20112;-78
2021/05/18 02:36:26;;;;;;;7.20;0.90;;;16.80;92.70;;;;;;4996284;28;20034;-81
2021/05/18 02:38:53;;;;;;;6.80;1.38;;;16.80;92.80;;;;;;5013860;28;20095;-78
2021/05/18 02:41:20;;;;;;;5.13;1.27;;;16.70;92.90;;;;;;4996070;28;20070;-81
2021/05/18 02:44:43;;;;;;;9.48;1.20;;;16.70;93.00;;;;;;5013572;28;20033;-78
2021/05/18 02:49:31;;;;;;;5.15;1.75;;;16.60;93.10;;;;;;4996110;28;20513;-81
2021/05/18 02:51:57;;;;;;;2.15;0.90;;;16.50;93.20;;;;;;5013563;28;20030;-78
2021/05/18 02:54:26;;;;;;;3.92;1.08;;;16.40;93.30;;;;;;5013399;28;20463;-79
2021/05/18 02:59:19;;;;;;;2.72;1.30;;;16.40;93.30;;;;;;5013351;28;20109;-81
2021/05/18 03:01:52;;;;;;;3.97;1.40;;;16.50;93.10;;;;;;5013542;28;20036;-81
2021/05/18 03:04:19;;;;;;;4.15;1.52;;;16.50;93.10;;;;;;5013204;28;20376;-81
2021/05/18 03:06:48;;;;;;;6.07;0.98;;;16.50;93.10;;;;;;5013184;28;20050;-77
2021/05/18 03:09:16;;;;;;;5.13;1.60;;;16.50;93.00;;;;;;4995328;28;20518;-76
2021/05/18 03:11:43;;;;;;;3.10;1.00;;;16.50;93.10;;;;;;5013340;28;20033;-80
2021/05/18 03:14:10;;;;;;;6.47;1.40;;;16.50;92.90;;;;;;5013265;28;20395;-80
2021/05/18 03:16:39;;;;;;;1.88;1.00;;;16.50;92.90;;;;;;5013087;28;20029;-81
2021/05/18 03:19:06;;;;;;;4.85;1.42;;;16.50;92.80;;;;;;5012968;28;20101;-81
2021/05/18 03:21:32;;;;;;;4.53;1.08;;;16.60;92.70;;;;;;5013070;28;20060;-79
2021/05/18 03:23:58;;;;;;;1.77;0.90;;;16.60;92.60;;;;;;5014288;28;20022;-80
2021/05/18 03:26:27;;;;;;;7.97;1.20;;;16.60;92.50;;;;;;5030217;28;20359;-81
2021/05/18 03:29:10;;;;;;;1.95;0.85;;;16.60;92.50;;;;;;4995256;28;20057;-81
2021/05/18 03:34:35;;;;;;;4.13;1.02;;;16.70;92.40;;;;;;5012959;28;20034;-82
2021/05/18 03:37:16;;;;;;;2.50;1.15;;;16.70;92.40;;;;;;5012797;28;20017;-79
2021/05/18 03:39:44;;;;;;;5.35;1.15;;;16.70;92.30;;;;;;5012678;28;20087;-81
2021/05/18 03:42:22;;;;;;;3.70;1.02;;;16.70;92.10;;;;;;4995064;28;20022;-77
2021/05/18 04:11:48;;;;;;;3.03;0.95;;;16.90;91.50;;;;;;5012511;28;20280;-81
2021/05/18 04:16:56;;;;;;;5.45;1.10;;;17.00;91.60;;;;;;5012496;28;20034;-81
2021/05/18 04:19:29;;;;;;;6.75;1.50;;;17.00;91.60;;;;;;5012381;28;20026;-81
2021/05/18 04:51:20;;;;;;;5.93;1.10;;;17.40;91.70;;;;;;5015872;28;20479;-81
2021/05/18 04:59:19;;;;;;;3.90;1.10;;;17.50;91.60;;;;;;5015485;28;20072;-82
2021/05/18 05:04:22;;;;;;;4.43;1.38;;;17.70;91.60;;;;;;5015445;28;20046;-82
2021/05/18 05:06:58;;;;;;;6.28;1.73;;;17.70;91.30;;;;;;5015450;28;20097;-82
2021/05/18 05:09:27;;;;;;;8.00;1.65;;;17.80;91.40;;;;;;4997693;28;20117;-77
2021/05/18 05:14:38;;;;;;;5.07;1.80;;;17.80;91.30;;;;;;5015407;28;20033;-82
2021/05/18 05:17:04;;;;;;;5.03;1.63;;;17.90;91.50;;;;;;5015486;28;20025;-82
2021/05/18 05:19:31;;;;;;;8.05;1.92;;;17.90;91.30;;;;;;5015133;28;20033;-81
2021/05/18 05:21:57;;;;;;;5.72;1.50;;;17.90;91.70;;;;;;5015177;28;20160;-82
2021/05/18 05:24:24;;;;;;;6.00;1.77;;;17.90;91.50;;;;;;5015117;28;20021;-77
2021/05/18 05:26:51;;;;;;;4.10;1.50;;;17.90;91.20;;;;;;5015111;28;20201;-82
2021/05/18 05:29:17;;;;;;;6.55;1.60;;;18.00;91.40;;;;;;5015108;28;20062;-82
2021/05/18 05:31:43;;;;;;;5.00;1.52;;;18.00;91.50;;;;;;5015023;28;20121;-78
2021/05/18 05:34:10;;;;;;;3.33;0.95;;;18.00;91.40;;;;;;5015192;28;20535;-82
2021/05/18 05:36:37;;;;;;;7.13;1.80;;;18.00;91.60;;;;;;5014906;28;20109;-82
2021/05/18 05:39:14;;;;;;;5.15;1.45;;;18.10;91.40;;;;;;5014892;28;20036;-77
2021/05/18 05:41:39;;;;;;;4.47;1.20;;;18.10;91.60;;;;;;5014428;28;20066;-81
2021/05/18 05:44:06;;;;;;;6.17;1.23;;;18.20;91.70;;;;;;5014688;28;20058;-81
2021/05/18 05:46:33;;;;;;;10.45;1.75;;;18.20;91.60;;;;;;5027308;28;20269;-82
2021/05/18 05:48:59;;;;;;;6.88;2.22;;;18.20;91.50;;;;;;5018868;28;20064;-82
2021/05/18 05:51:27;;;;;;;11.15;1.88;;;18.30;91.60;;;;;;5014663;28;20030;-82
2021/05/18 05:53:58;;;;;;;6.50;1.85;;;18.30;91.60;;;;;;5014570;28;20036;-78
2021/05/18 05:56:24;;;;;;;8.05;2.20;;;18.30;91.60;;;;;;5014403;28;20057;-77
2021/05/18 05:58:51;;;;;;;6.25;2.03;;;18.40;91.70;;;;;;5014663;28;20076;-82
2021/05/18 06:01:17;;;;;;;4.40;1.60;;;18.40;91.90;;;;;;5014336;28;20037;-80
2021/05/18 06:03:44;;;;;;;5.80;1.75;;;18.40;91.60;;;;;;5014423;28;20030;-81
2021/05/18 06:06:10;;;;;;;3.65;1.30;;;18.50;91.80;;;;;;5014280;28;20025;-81
2021/05/18 06:08:38;;;;;;;10.02;1.50;;;18.50;91.60;;;;;;5014205;28;20114;-82
2021/05/18 06:11:14;;;;;;;6.40;1.67;;;18.60;91.80;;;;;;5014322;28;20032;-81
2021/05/18 06:16:37;;;;;;;5.55;1.52;;;18.70;91.70;;;;;;5014066;28;20037;-82
2021/05/18 06:48:26;;;;;;;2.95;1.20;;;19.70;90.90;;;;;;4995883;28;20514;-82
2021/05/18 06:50:52;;;;;;;3.63;1.13;;;19.70;90.90;;;;;;5013538;28;20037;-82
2021/05/18 06:53:19;;;;;;;4.85;1.60;;;19.70;90.80;;;;;;5013306;28;20504;-78
2021/05/18 06:55:46;;;;;;;4.25;1.38;;;19.80;91.10;;;;;;5014550;28;20034;-82
2021/05/18 06:58:16;;;;;;;8.77;1.20;;;19.90;90.90;;;;;;5030424;28;20026;-82
2021/05/18 07:00:42;;;;;;;9.00;1.75;;;19.90;90.90;;;;;;5013387;28;20104;-83
2021/05/18 07:03:15;;;;;;;5.43;1.38;;;20.00;90.80;;;;;;5013324;28;20041;-77
2021/05/18 07:10:43;;;;;;;13.83;2.57;;;20.10;90.80;;;;;;5013214;28;20121;-82
2021/05/18 07:13:10;;;;;;;6.45;1.17;;;20.10;90.60;;;;;;5013230;28;20364;-83
2021/05/18 07:15:38;;;;;;;5.70;1.48;;;20.10;90.50;;;;;;4995459;28;20398;-82
2021/05/18 07:18:07;;;;;;;2.90;1.25;;;20.00;90.30;;;;;;5014093;28;20026;-77
2021/05/18 07:20:33;;;;;;;5.40;1.48;;;20.10;90.80;;;;;;5012947;28;20088;-82
2021/05/18 07:23:06;;;;;;;5.45;1.88;;;20.20;90.90;;;;;;5013480;28;20478;-82
2021/05/18 07:25:32;;;;;;;4.65;1.70;;;20.30;90.80;;;;;;5013169;28;20029;-77
2021/05/18 07:27:59;;;;;;;5.32;1.80;;;20.20;91.10;;;;;;5013063;28;20033;-80
2021/05/18 07:30:25;;;;;;;6.18;1.40;;;20.20;91.20;;;;;;4995311;28;20421;-77
2021/05/18 07:32:51;;;;;;;6.30;1.33;;;20.20;91.60;;;;;;5012942;28;20030;-82
2021/05/18 07:35:17;;;;;;;3.13;1.63;;;20.30;91.30;;;;;;5012782;28;20296;-82
2021/05/18 07:37:43;;;;;;;5.35;1.45;;;20.40;91.30;;;;;;5012876;28;20487;-79
2021/05/18 07:40:09;;;;;;;7.85;1.63;;;20.60;90.80;;;;;;5012721;28;20033;-77
2021/05/18 07:42:35;;;;;;;4.78;1.60;;;20.60;90.80;;;;;;5013008;28;20108;-81
2021/05/18 07:45:01;;;;;;;5.22;1.33;;;20.70;91.30;;;;;;5012651;28;20057;-79
2021/05/18 07:47:33;;;;;;;4.18;1.67;;;20.60;90.80;;;;;;5012694;28;20041;-76
2021/05/18 07:50:05;;;;;;;4.55;2.40;;;20.60;91.40;;;;;;5012717;28;20040;-77
2021/05/18 08:05:48;;;;;;;7.90;2.17;;;21.10;91.30;;;;;;5014142;28;20065;-77
2021/05/18 08:08:14;;;;;;;7.90;1.70;;;21.10;91.70;;;;;;5033794;28;20054;-83
2021/05/18 08:10:46;;;;;;;5.47;1.40;;;21.10;91.50;;;;;;5016715;28;20490;-76
2021/05/18 08:13:14;;;;;;;3.58;1.38;;;21.10;90.90;;;;;;5016684;28;20072;-82
2021/05/18 08:16:39;;;;;;;8.95;1.33;;;21.10;91.10;;;;;;5016409;28;20026;-78
2021/05/18 09:47:15;;;;;;;8.95;1.80;;;23.50;85.10;;;;;;5014755;28;20030;-82
2021/05/18 10:35:33;;;;;;;5.28;1.38;;;24.50;84.40;;;;;;5013851;28;20034;-82
2021/05/18 10:38:02;;;;;;;3.40;1.15;;;24.70;82.20;;;;;;5013818;28;20391;-82
2021/05/18 10:40:30;;;;;;;4.82;1.33;;;25.00;82.80;;;;;;5013682;28;20505;-82
2021/05/18 10:43:23;;;;;;;3.88;1.50;;;25.20;82.50;;;;;;5013902;28;20022;-82
2021/05/18 10:45:55;;;;;;;4.70;1.17;;;25.40;82.80;;;;;;5013655;28;20037;-82
2021/05/18 10:48:26;;;;;;;5.57;1.48;;;24.90;79.40;;;;;;5013664;28;20048;-83
2021/05/18 10:50:52;;;;;;;4.07;1.13;;;24.90;82.90;;;;;;5013555;28;20414;-83
2021/05/18 10:53:28;;;;;;;8.88;2.65;;;24.80;81.80;;;;;;5013497;28;20109;-77
2021/05/18 10:56:11;;;;;;;7.85;1.33;;;24.90;82.10;;;;;;5013485;28;20500;-83
2021/05/18 10:58:38;;;;;;;5.68;1.33;;;25.10;81.00;;;;;;5013621;28;20030;-83
2021/05/18 11:01:05;;;;;;;3.25;1.40;;;25.50;80.30;;;;;;5013441;28;20041;-81
2021/05/18 11:03:34;;;;;;;8.35;1.42;;;25.90;80.80;;;;;;5013514;28;20025;-77
2021/05/18 11:06:08;;;;;;;1.85;0.95;;;25.90;79.00;;;;;;5013319;28;20092;-81
2021/05/18 11:08:35;;;;;;;6.18;1.75;;;25.60;80.60;;;;;;5013332;28;20057;-82
2021/05/18 11:11:01;;;;;;;5.30;1.70;;;25.40;80.30;;;;;;5013240;28;20032;-82
2021/05/18 11:13:31;;;;;;;3.60;1.58;;;25.40;80.70;;;;;;5013180;28;20025;-82
2021/05/18 11:15:57;;;;;;;4.35;1.45;;;25.60;79.70;;;;;;5013232;28;20029;-77
2021/05/18 11:18:32;;;;;;;1.67;0.82;;;25.50;77.00;;;;;;5013025;28;20026;-78
2021/05/18 11:21:08;;;;;;;5.57;1.38;;;25.40;72.50;;;;;;5013016;28;20633;-82
2021/05/18 11:23:34;;;;;;;2.53;1.02;;;25.30;74.50;;;;;;5013075;28;20026;-83
2021/05/18 11:26:12;;;;;;;2.92;1.20;;;25.20;75.20;;;;;;5013033;28;20030;-81
2021/05/18 11:28:48;;;;;;;3.42;0.80;;;24.60;75.10;;;;;;5013076;28;20038;-82
2021/05/18 11:31:21;;;;;;;4.47;1.40;;;24.90;71.80;;;;;;5013064;28;20076;-81
2021/05/18 11:33:50;;;;;;;;;;;25.00;74.00;;;;;;5013545;28;20036;-82
2021/05/18 11:36:31;;;;;;;7.28;1.48;;;25.00;74.00;;;;;;5013185;28;20382;-81
2021/05/18 11:39:01;;;;;;;2.00;0.93;;;25.20;74.20;;;;;;5025202;28;20041;-82
2021/05/18 11:41:37;;;;;;;6.60;1.63;;;25.70;73.70;;;;;;5015387;28;20041;-82
2021/05/18 11:44:06;;;;;;;3.75;1.25;;;26.20;74.90;;;;;;5012837;28;20030;-82
2021/05/18 11:46:34;;;;;;;2.72;1.10;;;26.30;74.20;;;;;;5012872;28;20483;-82
2021/05/18 11:49:10;;;;;;;6.65;1.85;;;26.70;73.50;;;;;;5012682;28;20022;-81
2021/05/18 11:51:49;;;;;;;3.30;1.10;;;26.10;71.50;;;;;;5012797;28;20072;-82
2021/05/18 11:54:19;;;;;;;3.42;1.23;;;26.10;68.80;;;;;;5012619;28;20497;-80
2021/05/18 11:56:46;;;;;;;6.53;1.38;;;26.20;69.30;;;;;;5012708;28;20045;-82
2021/05/18 11:59:14;;;;;;;3.92;1.10;;;26.30;72.70;;;;;;5012667;28;20034;-82
2021/05/18 12:01:53;;;;;;;5.18;1.67;;;26.20;72.90;;;;;;5012585;28;20034;-82
2021/05/18 12:04:22;;;;;;;2.00;1.20;;;26.90;71.80;;;;;;5012486;28;20427;-82
2021/05/18 12:06:54;;;;;;;3.65;0.93;;;27.40;72.20;;;;;;5012687;28;20536;-81
2021/05/18 12:09:20;;;;;;;4.88;1.05;;;27.00;67.90;;;;;;5012358;28;20066;-83
2021/05/18 12:11:57;;;;;;;3.05;1.38;;;26.70;70.10;;;;;;5012605;28;20025;-82
2021/05/18 12:14:24;;;;;;;2.15;0.80;;;26.90;71.10;;;;;;5012493;28;20109;-81
2021/05/18 12:16:51;;;;;;;3.90;1.55;;;26.80;71.50;;;;;;5012463;28;20026;-78
2021/05/18 12:19:19;;;;;;;5.10;1.30;;;26.70;70.70;;;;;;5012401;28;20152;-81
2021/05/18 12:21:48;;;;;;;4.25;1.67;;;26.60;71.90;;;;;;5012349;28;20040;-77
2021/05/18 12:24:18;;;;;;;2.60;0.82;;;26.70;70.00;;;;;;4994791;28;20029;-79
2021/05/18 12:26:44;;;;;;;6.05;1.38;;;27.10;69.70;;;;;;5012397;28;20164;-82
2021/05/18 12:29:10;;;;;;;9.83;1.17;;;27.50;67.60;;;;;;5012488;28;20109;-77
2021/05/18 12:31:37;;;;;;;3.00;1.20;;;28.00;67.70;;;;;;5012340;28;20386;-81
2021/05/18 12:34:06;;;;;;;7.70;1.33;;;28.50;67.20;;;;;;5012216;28;20305;-83
2021/05/18 12:36:47;;;;;;;5.75;1.08;;;28.90;66.60;;;;;;5012202;28;20492;-79
2021/05/18 12:39:15;;;;;;;2.65;1.00;;;28.50;63.10;;;;;;5012418;28;20033;-78
2021/05/18 12:41:51;;;;;;;5.50;1.58;;;27.80;64.70;;;;;;5012290;28;20490;-83
2021/05/18 12:44:24;;;;;;;4.75;0.90;;;27.00;64.10;;;;;;5015376;28;20053;-78
2021/05/18 12:46:56;;;;;;;3.28;1.05;;;26.50;65.10;;;;;;4994920;28;20037;-82
2021/05/18 12:49:33;;;;;;;2.20;0.70;;;26.20;65.40;;;;;;5023527;28;20022;-79
2021/05/18 12:52:05;;;;;;;1.77;0.70;;;25.80;65.50;;;;;;5017201;28;20084;-82
2021/05/18 12:54:50;;;;;;;3.92;0.85;;;25.80;66.40;;;;;;5015722;28;20117;-77
2021/05/18 12:57:21;;;;;;;1.52;0.80;;;25.60;65.30;;;;;;5015737;28;20037;-77
2021/05/18 12:59:56;;;;;;;5.13;1.20;;;25.50;66.40;;;;;;5015843;28;20104;-82
2021/05/18 13:02:33;;;;;;;3.65;0.80;;;25.40;67.50;;;;;;5015752;28;20483;-82
2021/05/18 13:05:06;;;;;;;2.92;0.70;;;24.90;64.70;;;;;;5015638;28;20495;-81
2021/05/18 13:07:32;;;;;;;3.13;0.80;;;25.00;66.70;;;;;;5015473;28;20045;-77
2021/05/18 13:10:23;;;;;;;1.92;1.10;;;25.10;67.50;;;;;;5015641;28;20036;-83
2021/05/18 13:13:00;;;;;;;3.63;1.65;;;25.40;67.80;;;;;;5015467;28;20050;-82
2021/05/18 13:15:26;;;;;;;3.20;1.33;;;25.60;67.50;;;;;;5015381;28;20026;-82
2021/05/18 13:17:54;;;;;;;2.70;0.70;;;25.80;66.90;;;;;;5015613;28;20034;-82
2021/05/18 13:20:21;;;;;;;1.92;0.90;;;26.10;68.20;;;;;;5015229;28;20046;-82
2021/05/18 13:22:52;;;;;;;2.97;1.00;;;26.30;68.70;;;;;;5015349;28;20364;-82
2021/05/18 13:28:03;;;;;;;2.45;1.42;;;26.50;67.40;;;;;;5015248;28;20037;-82
2021/05/18 13:30:30;;;;;;;4.15;1.10;;;26.70;67.70;;;;;;5015086;28;20037;-82
2021/05/18 13:32:57;;;;;;;3.72;1.00;;;26.70;68.40;;;;;;5015018;28;20030;-82
2021/05/18 13:35:25;;;;;;;4.03;1.02;;;26.80;68.60;;;;;;5014938;28;20030;-80
2021/05/18 13:37:51;;;;;;;3.47;1.10;;;26.70;68.60;;;;;;5014931;28;20057;-80
2021/05/18 13:40:20;;;;;;;2.20;0.80;;;26.80;68.70;;;;;;5014920;28;20034;-82
2021/05/18 13:42:51;;;;;;;2.25;1.30;;;27.20;68.10;;;;;;5014877;28;20454;-82
2021/05/18 13:45:18;;;;;;;3.63;0.90;;;27.40;66.10;;;;;;5014756;28;20025;-82
2021/05/18 13:47:44;;;;;;;6.88;2.35;;;27.30;66.00;;;;;;5014810;28;20033;-81
2021/05/18 13:50:10;;;;;;;3.20;0.82;;;27.30;66.30;;;;;;5014696;28;20049;-81
2021/05/18 13:52:36;;;;;;;3.95;1.20;;;27.20;65.10;;;;;;5014683;28;20048;-82
2021/05/18 13:55:02;;;;;;;5.47;1.00;;;27.10;65.90;;;;;;5014441;28;20410;-83
2021/05/18 13:57:28;;;;;;;4.30;1.23;;;27.30;66.50;;;;;;5014756;28;20080;-84
2021/05/18 13:59:55;;;;;;;3.70;1.13;;;27.50;66.10;;;;;;5027484;28;20034;-82
2021/05/18 14:02:21;;;;;;;1.85;0.88;;;27.70;65.70;;;;;;5018627;28;20033;-77
2021/05/18 14:04:47;;;;;;;2.73;1.17;;;27.40;65.20;;;;;;5013663;28;20026;-77
2021/05/18 14:08:01;;;;;;;4.80;1.57;;;27.20;66.30;;;;;;5014317;28;20038;-78
2021/05/18 14:10:32;;;;;;;3.65;0.93;;;26.90;66.10;;;;;;4985074;28;21089;-82
2021/05/18 14:12:58;;;;;;;2.93;1.27;;;25.90;66.70;;;;;;5014319;28;20033;-78
2021/05/18 14:15:24;;;;;;;4.37;0.90;;;25.70;67.50;;;;;;5014251;28;20033;-82
2021/05/18 14:17:50;;;;;;;2.80;0.90;;;25.20;67.80;;;;;;5014182;28;20020;-82
2021/05/18 14:20:16;;;;;;;2.60;1.03;;;25.00;69.00;;;;;;5014048;28;20284;-82
2021/05/18 14:22:42;;;;;;;1.47;1.13;;;25.00;69.70;;;;;;5014097;28;20021;-82
2021/05/18 14:25:08;;;;;;;2.97;0.90;;;25.10;70.00;;;;;;5014139;28;20034;-82
2021/05/18 14:27:36;;;;;;;3.13;0.63;;;25.20;69.30;;;;;;5014069;28;20045;-82
2021/05/18 14:30:05;;;;;;;4.90;0.77;;;25.00;68.70;;;;;;5013891;28;20025;-78
2021/05/18 14:32:31;;;;;;;3.35;1.00;;;24.80;68.70;;;;;;5013912;28;20494;-82
2021/05/18 14:34:57;;;;;;;5.13;1.00;;;24.70;69.30;;;;;;5013879;28;20440;-82
2021/05/18 14:37:23;;;;;;;3.83;0.73;;;24.70;70.70;;;;;;5013843;28;20050;-77
2021/05/18 14:45:25;;;;;;;1.60;1.25;;;24.90;70.70;;;;;;5013757;28;20034;-83
2021/05/18 14:55:59;;;;;;;1.88;1.05;;;24.60;69.50;;;;;;5013557;28;20073;-81
2021/05/18 14:58:25;;;;;;;2.20;0.90;;;24.60;70.40;;;;;;5013702;28;20026;-83
2021/05/18 15:00:51;;;;;;;3.13;1.08;;;25.00;70.20;;;;;;5013576;28;20034;-82
2021/05/18 15:03:17;;;;;;;1.33;0.70;;;25.40;70.10;;;;;;5013334;28;20113;-77
2021/05/18 15:05:43;;;;;;;3.15;0.70;;;25.80;69.50;;;;;;5013403;28;20029;-79
2021/05/18 15:08:09;;;;;;;3.55;0.80;;;26.00;68.90;;;;;;5013209;28;20073;-82
2021/05/18 15:10:36;;;;;;;3.55;1.48;;;26.00;67.80;;;;;;5027212;28;20034;-82
2021/05/18 15:13:03;;;;;;;3.92;0.77;;;25.50;66.70;;;;;;5013978;28;20033;-79
2021/05/18 15:15:29;;;;;;;1.60;1.00;;;25.20;68.20;;;;;;5013257;28;20118;-82
2021/05/18 15:17:57;;;;;;;0.98;0.65;;;25.20;69.00;;;;;;5013310;28;20025;-82
2021/05/18 15:20:25;;;;;;;4.60;1.45;;;25.00;68.50;;;;;;5013087;28;20030;-82
2021/05/18 15:22:51;;;;;;;8.60;1.30;;;24.90;67.80;;;;;;5013349;28;20080;-78
2021/05/18 15:25:17;;;;;;;4.72;0.93;;;25.00;68.10;;;;;;5013034;28;20017;-82
2021/05/18 15:27:43;;;;;;;4.37;1.13;;;25.20;68.40;;;;;;5013111;28;20033;-82
2021/05/18 15:30:12;;;;;;;1.48;0.98;;;25.20;67.70;;;;;;5013234;28;20264;-77
2021/05/18 15:32:39;;;;;;;1.98;1.05;;;24.90;66.80;;;;;;4995478;28;20022;-82
2021/05/18 15:35:07;;;;;;;5.75;0.98;;;25.00;67.30;;;;;;4995204;28;20026;-82
2021/05/18 15:37:34;;;;;;;5.75;1.38;;;25.20;68.30;;;;;;5012924;28;20044;-82
2021/05/18 15:40:00;;;;;;;2.80;1.48;;;25.30;67.40;;;;;;5012714;28;20175;-80
2021/05/18 15:42:26;;;;;;;2.55;1.20;;;25.50;67.60;;;;;;5012885;28;20034;-82
2021/05/18 15:44:52;;;;;;;2.33;0.90;;;25.50;67.20;;;;;;5012762;28;20505;-82
2021/05/18 15:47:19;;;;;;;4.47;1.20;;;25.90;67.60;;;;;;5012787;28;20052;-78
2021/05/18 15:49:45;;;;;;;2.05;0.75;;;26.10;66.00;;;;;;5012951;28;20445;-77
2021/05/18 15:52:11;;;;;;;4.97;1.00;;;26.40;65.90;;;;;;5012733;28;20033;-82
2021/05/18 15:54:37;;;;;;;3.43;1.37;;;26.70;66.90;;;;;;5012738;28;20049;-78
2021/05/18 15:57:04;;;;;;;3.03;1.37;;;26.90;66.10;;;;;;5012631;28;20022;-77
2021/05/18 15:59:29;;;;;;;5.32;1.10;;;27.00;65.40;;;;;;5012647;28;20045;-82
2021/05/18 16:01:55;;;;;;;3.23;1.60;;;27.10;65.90;;;;;;5012585;28;20442;-83
2021/05/18 16:04:23;;;;;;;5.00;1.60;;;27.30;66.10;;;;;;4978881;28;20394;-82
2021/05/18 16:06:49;;;;;;;3.92;1.40;;;27.40;65.70;;;;;;5012583;28;20026;-83
2021/05/18 16:09:15;;;;;;;2.80;1.20;;;27.50;64.80;;;;;;4994655;28;20396;-82
2021/05/18 16:11:42;;;;;;;2.65;1.20;;;27.50;64.70;;;;;;5012605;28;20117;-82
2021/05/18 16:14:09;;;;;;;6.35;1.60;;;27.50;65.10;;;;;;5012510;28;20026;-82
2021/05/18 16:16:36;;;;;;;6.13;1.02;;;27.60;64.70;;;;;;5012423;28;20026;-82
2021/05/18 16:19:03;;;;;;;4.88;1.35;;;27.70;64.90;;;;;;5012443;28;20036;-81
2021/05/18 16:21:29;;;;;;;5.00;1.38;;;27.70;64.60;;;;;;5028285;28;20088;-82
2021/05/18 16:23:57;;;;;;;4.63;1.08;;;27.70;64.80;;;;;;5012656;28;20014;-82
2021/05/18 16:26:25;;;;;;;2.25;0.95;;;27.70;64.40;;;;;;5012806;28;20032;-83
2021/05/18 16:28:52;;;;;;;3.40;1.30;;;27.50;64.70;;;;;;5016366;28;20026;-78
2021/05/18 16:31:19;;;;;;;2.95;0.90;;;27.40;64.40;;;;;;5016358;28;20057;-82
2021/05/18 16:33:45;;;;;;;2.90;1.10;;;27.30;63.60;;;;;;5016174;28;20028;-78
2021/05/18 16:36:13;;;;;;;4.97;1.02;;;27.20;63.80;;;;;;5016093;28;20113;-77
2021/05/18 16:38:40;;;;;;;2.95;0.93;;;27.10;64.10;;;;;;5016310;28;20538;-77
2021/05/18 16:41:06;;;;;;;5.85;1.85;;;27.20;64.10;;;;;;5016058;28;20129;-78
2021/05/18 16:43:33;;;;;;;4.57;1.27;;;27.20;64.70;;;;;;5016115;28;20112;-81
2021/05/18 16:46:01;;;;;;;2.58;0.80;;;27.30;64.90;;;;;;5015996;28;20471;-82
2021/05/18 16:48:28;;;;;;;3.17;1.00;;;27.20;64.90;;;;;;5016204;28;20432;-83
2021/05/18 16:51:00;;;;;;;7.20;1.00;;;27.20;64.40;;;;;;5015929;28;20032;-78
2021/05/18 16:53:27;;;;;;;2.60;0.90;;;27.10;64.30;;;;;;4998223;28;20054;-82
2021/05/18 16:55:54;;;;;;;4.70;0.95;;;27.10;64.30;;;;;;5015787;28;20272;-83
2021/05/18 16:58:20;;;;;;;5.30;1.45;;;27.00;64.80;;;;;;5015572;28;20379;-82
2021/05/18 17:00:46;;;;;;;7.00;1.42;;;26.90;66.20;;;;;;5015741;28;20479;-82
2021/05/18 17:03:13;;;;;;;3.10;1.02;;;26.80;66.60;;;;;;5015592;28;20029;-82
2021/05/18 17:05:40;;;;;;;6.13;1.63;;;26.60;66.10;;;;;;5015552;28;20036;-82
2021/05/18 17:08:06;;;;;;;3.47;1.42;;;26.40;65.90;;;;;;5015257;28;20053;-82
2021/05/18 17:10:37;;;;;;;3.05;1.42;;;26.30;66.10;;;;;;5015460;28;20034;-82
2021/05/18 17:13:04;;;;;;;2.53;1.02;;;26.10;66.30;;;;;;5015438;28;20034;-78
2021/05/18 17:15:30;;;;;;;3.95;1.58;;;25.90;65.60;;;;;;5015508;28;20101;-82
2021/05/18 17:17:57;;;;;;;3.88;1.20;;;25.70;66.30;;;;;;5015438;28;20513;-77
2021/05/18 17:20:24;;;;;;;3.80;1.38;;;25.50;66.70;;;;;;5015309;28;20486;-82
2021/05/18 17:22:50;;;;;;;2.10;0.88;;;25.30;67.00;;;;;;5015370;28;20044;-83
2021/05/18 17:25:17;;;;;;;3.77;1.07;;;25.10;67.80;;;;;;5015144;28;20026;-77
2021/05/18 17:27:42;;;;;;;4.00;1.08;;;25.00;68.10;;;;;;5015290;28;20335;-82
2021/05/18 17:30:12;;;;;;;2.83;0.80;;;24.80;68.40;;;;;;5017111;28;20364;-77
2021/05/18 17:32:38;;;;;;;10.02;1.02;;;24.70;68.20;;;;;;5028176;28;20022;-78
2021/05/18 17:35:06;;;;;;;5.00;1.38;;;24.50;68.40;;;;;;5015215;28;20364;-77
2021/05/18 17:37:33;;;;;;;3.55;1.10;;;24.40;69.30;;;;;;4997507;28;20437;-77
2021/05/18 17:39:59;;;;;;;4.75;1.50;;;24.20;70.00;;;;;;5015105;28;20057;-82
2021/05/18 17:42:25;;;;;;;4.22;1.45;;;24.10;69.60;;;;;;5014962;28;20566;-82
2021/05/18 17:44:57;;;;;;;4.37;1.23;;;23.90;70.40;;;;;;5015068;28;20053;-82
2021/05/18 17:47:23;;;;;;;3.38;1.45;;;23.80;70.80;;;;;;5014915;28;20428;-77
2021/05/18 17:49:49;;;;;;;6.72;1.90;;;23.60;71.70;;;;;;5014807;28;20383;-82
2021/05/18 17:52:15;;;;;;;3.42;1.25;;;23.50;72.30;;;;;;5014716;28;20486;-81
2021/05/18 17:54:43;;;;;;;3.40;1.63;;;23.40;72.50;;;;;;5014847;28;20037;-83